Report METAR

 

LIBV - Gioia Del Colle, Italy
Distanza dalla stazione: SSE 15km
Dati ricevuti: 09/04/2020 19:55
Sereno
Sereno
 Vento da N
Vento: N 13 km/h
Temperatura: 11°C
P.to Rugiada: -7°C
Umidità: 28%
Barometro: 1019 hPa
Riassunto: Sereno
Visibilità: superiore a 10 km
2020/04/09 17:55 LIBV 091755Z 36007KT CAVOK 11/M07 Q1019 RMK SKC VIS MIN 9999 WIND THR32 01006KT WIND THR14 36006KT BLU
LIBD - Bari/Palese Macc, Italy
Distanza dalla stazione: NNO 26km
Dati ricevuti: 09/04/2020 20:50
Sereno
Sereno
 Vento da OSO
Vento: OSO 9 km/h
Temperatura: 9°C
Temperatura Vento: 7°C
P.to Rugiada: 1°C
Umidità: 58%
Barometro: 1021 hPa
Riassunto: Sereno
Visibilità: superiore a 10 km
2020/04/09 18:50 LIBD 091850Z 24005KT CAVOK 09/01 Q1021
 
LIBH - Marina Di Ginosa, Italy
Distanza dalla stazione: S 53km
Dati ricevuti: 09/04/2020 18:55
DATI Obsoleti
Sereno
Sereno
 Vento da Variabile
Vento: Variabile 13 km/h
Temperatura: 20°C
P.to Rugiada: 1°C
Umidità: 28%
Barometro: 1018 hPa
Riassunto: Sereno
Visibilità: superiore a 10 km
2020/04/09 16:55 LIBH 091655Z VRB07KT CAVOK 20/01 Q1018 RMK SKC QUK 1 QUL 1 E VIS MAR 25 KM VIS MIN 9999
LIBG - Grottaglie(Civ/A, Italy
Distanza dalla stazione: SE 61km
Dati ricevuti: 09/04/2020 19:50
Sereno
Sereno
 Vento da NNE
Vento: NNE 13 km/h
Temperatura: 15°C
P.to Rugiada: 3°C
Umidità: 45%
Barometro: 1019 hPa
Riassunto: Sereno
Visibilità: superiore a 10 km
2020/04/09 17:50 LIBG 091750Z 02007KT CAVOK 15/03 Q1019
 
LIBR - Brindisi/Casale, Italy
Distanza dalla stazione: ESE 96km
Dati ricevuti: 09/04/2020 20:50
Sereno
Sereno
 Vento da ONO
Vento: ONO 17 km/h
Temperatura: 13°C
P.to Rugiada: 7°C
Umidità: 67%
Barometro: 1020 hPa
Riassunto: Sereno
Visibilità: superiore a 10 km
2020/04/09 18:50 LIBR 091850Z 30009KT CAVOK 13/07 Q1020
LIBA - Amendola (it-Afb, Italy
Distanza dalla stazione: NO 118km
Dati ricevuti: 09/04/2020 19:55
Sereno
Sereno
 Vento da NO
Vento: NO 13 km/h
Temperatura: 13°C
P.to Rugiada: -5°C
Umidità: 28%
Barometro: 1020 hPa
Riassunto: Sereno
Visibilità: superiore a 10 km
2020/04/09 17:55 LIBA 091755Z 31007KT CAVOK 13/M05 Q1020 RMK SKC VIS MIN 9999 WIND THR11 31006KT WIND THR29 /////KT BLU
 
LIBF - Foggia/Gino Lisa, Italy
Distanza dalla stazione: ONO 126km
Dati ricevuti: 09/04/2020 17:50
DATI Obsoleti
Sereno
Sereno
 Vento da NNO
Vento: NNO 19 km/h
Temperatura: 18°C
P.to Rugiada: -6°C
Umidità: 19%
Barometro: 1020 hPa
Riassunto: Sereno
Visibilità: superiore a 10 km
2020/04/09 15:50 LIBF 091550Z 33010KT CAVOK 18/M06 Q1020
LIBN - Lecce (it-Afb), Italy
Distanza dalla stazione: SE 132km
Dati ricevuti: 09/04/2020 19:55
Sereno
Sereno
 Vento da NNO
Vento: NNO 11 km/h
Temperatura: 12°C
P.to Rugiada: 3°C
Umidità: 54%
Barometro: 1019 hPa
Riassunto: Sereno
Visibilità: superiore a 10 km
2020/04/09 17:55 LIBN 091755Z 34006KT CAVOK 12/03 Q1019 RMK SKC VIS MIN 9999 WIND THR14 34006KT WIND THR32 34004KT BLU